PAMD METAR and TAF weather

Enter ICAO airport designator
Station Type Date Time Source
PAMD METAR 2019/08/26 05:51 UTC NOAA

PAMD 260551Z AUTO 10006KT 10SM BKN036 13/12 A3002 RMK AO2 SLP158 T01280117 10156 20128 53002


Station Type Date Time Source
PAMD Decoded METAR 2019/08/26 05:51 UTC NOAA

Station name not available
Aug 26, 2019 - 01:51 AM EDT / 2019.08.26 0551 UTC
Wind: from the E (100 degrees) at 7 MPH (6 KT):0
Visibility: 10 mile(s):0
Sky conditions: mostly cloudy
Temperature: 55.0 F (12.8 C)
Dew Point: 53.1 F (11.7 C)
Relative Humidity: 93%
Pressure (altimeter): 30.02 in. Hg (1016 hPa)
Pressure tendency: 0.01 inches (0.2 hPa) higher than three hours ago
ob: PAMD 260551Z AUTO 10006KT 10SM BKN036 13/12 A3002 RMK AO2 SLP158 T01280117 10156 20128 53002
cycle: 6

Station Type Date Time Source
PAMD TAF UTC NOAA

Error!

Example: see airport list